Time;durP1;ratioP1;P1;durP2;ratioP2;P2;SDS_P1;SDS_P2;PMS_P1;PMS_P2;Temp;Humidity;BMP_temperature;BMP_pressure;BME280_temperature;BME280_humidity;BME280_pressure;Samples;Min_cycle;Max_cycle;Signal;HPM_P1;HPM_P2
2021/12/08 00:01:48;;;;;;;4.93;3.33;;;;;;;-0.74;92.52;97217.44;4204432;28;20040;-72
2021/12/08 00:03:49;;;;;;;7.45;3.78;;;;;;;-0.73;93.54;97231.78;4208823;27;20048;-72
2021/12/08 00:05:50;;;;;;;4.35;3.08;;;;;;;-0.66;92.79;97227.41;4208424;27;20071;-72
2021/12/08 00:07:51;;;;;;;4.72;3.20;;;;;;;-0.72;91.88;97223.31;4213409;27;20035;-72
2021/12/08 00:10:12;;;;;;;4.40;2.88;;;;;;;-0.70;92.55;97221.03;4206503;27;20380;-72
2021/12/08 00:14:32;;;;;;;4.32;2.65;;;;;;;-0.54;92.25;97225.84;4216387;27;20065;-72
2021/12/08 00:16:33;;;;;;;6.78;3.22;;;;;;;-0.54;91.46;97223.91;4208591;27;20447;-72
2021/12/08 00:18:34;;;;;;;5.18;2.75;;;;;;;-0.53;90.85;97228.22;4206506;27;20042;-72
2021/12/08 00:20:36;;;;;;;3.67;2.78;;;;;;;-0.59;91.42;97221.41;4208378;27;20408;-72
2021/12/08 00:22:36;;;;;;;5.30;3.72;;;;;;;-0.67;91.68;97220.38;4208946;27;20462;-72
2021/12/08 00:24:37;;;;;;;3.22;2.53;;;;;;;-0.76;90.72;97227.00;4208027;27;20349;-72
2021/12/08 00:26:37;;;;;;;5.00;2.72;;;;;;;-0.76;92.58;97230.53;4207865;27;20159;-72
2021/12/08 00:28:38;;;;;;;5.82;2.65;;;;;;;-0.77;92.14;97217.28;4209094;27;20118;-72
2021/12/08 00:30:42;;;;;;;5.78;2.67;;;;;;;-0.70;88.28;97220.25;4207331;27;20073;-72
2021/12/08 00:32:44;;;;;;;2.58;1.75;;;;;;;-0.55;86.55;97221.53;4209109;27;20452;-72
2021/12/08 00:34:45;;;;;;;3.00;2.00;;;;;;;-0.37;88.90;97223.72;4207490;27;20043;-72
2021/12/08 00:36:49;;;;;;;4.03;2.22;;;;;;;-0.20;85.18;97213.78;4208165;27;20036;-72
2021/12/08 00:38:49;;;;;;;4.75;2.47;;;;;;;-0.10;84.34;97211.41;4206644;27;20053;-72
2021/12/08 00:40:51;;;;;;;3.28;2.08;;;;;;;-0.04;83.10;97209.28;4207389;27;20484;-72
2021/12/08 00:42:52;;;;;;;5.40;2.28;;;;;;;-0.04;86.04;97201.91;4208266;27;20040;-72
2021/12/08 00:44:52;;;;;;;4.15;2.33;;;;;;;0.02;82.78;97216.06;4206584;27;20837;-72
2021/12/08 00:46:53;;;;;;;3.72;2.20;;;;;;;-0.03;83.80;97211.66;4211154;27;20303;-72
2021/12/08 00:48:53;;;;;;;3.45;1.80;;;;;;;-0.01;83.41;97214.81;4206400;27;20083;-72
2021/12/08 00:50:54;;;;;;;3.30;2.17;;;;;;;-0.03;82.05;97206.22;4207031;27;20132;-72
2021/12/08 00:52:57;;;;;;;6.22;2.30;;;;;;;-0.01;82.30;97203.13;4206664;27;20502;-72
2021/12/08 00:54:57;;;;;;;;;;;;;;;0.03;83.35;97206.00;4208333;27;20036;-72
2021/12/08 00:56:58;;;;;;;3.47;2.03;;;;;;;0.02;84.07;97209.84;4208934;27;19924;-72
2021/12/08 00:58:58;;;;;;;2.88;1.83;;;;;;;0.11;80.50;97203.16;4206058;27;20039;-72
2021/12/08 01:00:59;;;;;;;3.03;1.88;;;;;;;0.06;84.12;97208.03;4207545;27;20040;-72
2021/12/08 01:02:59;;;;;;;4.35;2.15;;;;;;;-0.02;82.51;97212.44;4209017;27;20798;-71
2021/12/08 01:05:00;;;;;;;5.90;2.63;;;;;;;-0.06;83.55;97203.38;4207560;27;20441;-72
2021/12/08 01:07:01;;;;;;;5.55;2.15;;;;;;;-0.01;82.18;97200.41;4208081;27;20349;-72
2021/12/08 01:09:01;;;;;;;4.43;1.90;;;;;;;-0.10;83.44;97197.03;4208376;27;20048;-72
2021/12/08 01:11:07;;;;;;;3.90;2.13;;;;;;;-0.10;82.92;97195.09;4208491;27;20044;-72
2021/12/08 01:13:09;;;;;;;4.30;2.03;;;;;;;-0.11;83.78;97188.06;4205340;27;20046;-72
2021/12/08 01:15:09;;;;;;;3.13;2.03;;;;;;;-0.10;83.47;97183.44;4206466;27;20454;-72
2021/12/08 01:17:10;;;;;;;4.47;1.67;;;;;;;-0.13;83.13;97174.03;4207879;27;20047;-72
2021/12/08 01:19:10;;;;;;;2.15;1.75;;;;;;;-0.15;84.82;97167.38;4209753;27;20055;-72
2021/12/08 01:21:13;;;;;;;2.83;1.90;;;;;;;-0.15;83.76;97170.88;4205799;27;20032;-72
2021/12/08 01:23:15;;;;;;;3.95;2.08;;;;;;;-0.17;84.70;97169.59;4208463;27;20048;-72
2021/12/08 01:25:16;;;;;;;3.42;2.15;;;;;;;-0.15;83.27;97157.28;4207496;27;20042;-72
2021/12/08 01:27:16;;;;;;;4.43;2.00;;;;;;;-0.14;83.14;97155.34;4208898;27;20555;-72
2021/12/08 01:29:17;;;;;;;7.28;2.00;;;;;;;-0.18;82.66;97157.16;4207647;27;20032;-72
2021/12/08 01:31:17;;;;;;;3.08;2.10;;;;;;;-0.19;84.31;97150.91;4207399;27;20047;-72
2021/12/08 01:33:19;;;;;;;4.15;2.00;;;;;;;-0.20;85.10;97159.41;4205922;27;20042;-72
2021/12/08 01:35:20;;;;;;;3.15;2.00;;;;;;;-0.23;85.77;97160.09;4211047;27;20040;-72
2021/12/08 01:37:21;;;;;;;5.30;1.95;;;;;;;-0.21;83.87;97164.06;4209824;27;20465;-72
2021/12/08 01:39:21;;;;;;;3.05;2.00;;;;;;;-0.17;84.61;97181.28;4206071;27;20106;-72
2021/12/08 01:41:23;;;;;;;2.38;1.73;;;;;;;-0.15;84.67;97178.22;4207262;27;20418;-72
2021/12/08 01:43:40;;;;;;;5.72;2.67;;;;;;;-0.08;83.66;97162.94;4208316;27;20482;-72
2021/12/08 01:46:00;;;;;;;2.85;2.00;;;;;;;-0.03;83.73;97161.91;4206387;27;20058;-72
2021/12/08 01:48:09;;;;;;;2.40;1.88;;;;;;;-0.04;82.54;97160.31;4205468;27;20041;-72
2021/12/08 01:50:10;;;;;;;2.92;1.80;;;;;;;-0.09;82.69;97158.63;4206130;27;20035;-72
2021/12/08 01:52:10;;;;;;;5.25;2.10;;;;;;;-0.02;84.15;97142.53;4206234;27;20626;-72
2021/12/08 01:54:11;;;;;;;4.05;1.83;;;;;;;0.10;83.32;97147.19;4212837;27;20452;-71
2021/12/08 01:56:12;;;;;;;4.28;2.13;;;;;;;0.09;81.69;97150.25;4204677;27;20115;-71
2021/12/08 01:58:14;;;;;;;2.63;1.60;;;;;;;0.10;83.34;97152.63;4209262;27;20028;-72
2021/12/08 02:00:24;;;;;;;4.00;2.22;;;;;;;0.12;82.88;97155.78;4208020;27;20039;-72
2021/12/08 02:02:24;;;;;;;4.57;2.40;;;;;;;0.06;82.94;97137.31;4206020;27;20065;-72
2021/12/08 02:04:25;;;;;;;3.65;2.50;;;;;;;0.06;83.59;97138.09;4205542;27;20154;-72
2021/12/08 02:06:26;;;;;;;4.20;2.15;;;;;;;0.00;84.80;97125.91;4210216;27;20055;-72
2021/12/08 02:08:27;;;;;;;4.53;2.13;;;;;;;-0.06;84.79;97117.16;4206310;27;20043;-71
2021/12/08 02:10:27;;;;;;;4.30;2.38;;;;;;;-0.16;84.39;97105.97;4206426;27;20032;-71
2021/12/08 02:12:29;;;;;;;5.57;3.10;;;;;;;-0.23;85.53;97111.19;4207710;27;20047;-72
2021/12/08 02:14:32;;;;;;;5.45;2.65;;;;;;;-0.22;86.89;97110.03;4206260;27;20424;-72
2021/12/08 02:16:32;;;;;;;3.47;2.40;;;;;;;-0.28;87.77;97090.44;4205801;27;20028;-72
2021/12/08 02:18:32;;;;;;;5.88;2.83;;;;;;;-0.30;88.34;97093.50;4205723;28;20455;-72
2021/12/08 02:20:33;;;;;;;7.43;2.30;;;;;;;-0.31;87.50;97093.84;4206131;27;20533;-72
2021/12/08 02:22:34;;;;;;;4.70;2.40;;;;;;;-0.32;87.68;97089.56;4208883;27;20035;-72
2021/12/08 02:24:34;;;;;;;5.63;2.67;;;;;;;-0.31;87.65;97082.97;4204846;28;20040;-72
2021/12/08 02:26:36;;;;;;;3.35;2.40;;;;;;;-0.33;88.08;97082.53;4205448;28;20511;-72
2021/12/08 02:28:36;;;;;;;5.45;2.60;;;;;;;-0.28;87.18;97077.66;4204055;27;20066;-72
2021/12/08 02:30:54;;;;;;;7.25;2.88;;;;;;;-0.30;86.87;97065.53;4206024;27;20036;-72
2021/12/08 02:47:06;;;;;;;3.17;2.40;;;;;;;0.15;81.30;97073.50;4208305;27;20051;-72
2021/12/08 02:49:06;;;;;;;5.10;2.03;;;;;;;0.17;81.14;97068.53;4212686;28;20091;-72
2021/12/08 02:51:07;;;;;;;4.40;2.58;;;;;;;0.21;81.14;97076.78;4203846;28;20035;-72
2021/12/08 02:53:10;;;;;;;6.25;2.20;;;;;;;0.21;81.30;97079.50;4205320;28;20040;-72
2021/12/08 02:55:10;;;;;;;3.47;2.20;;;;;;;0.30;79.68;97091.03;4207023;28;20101;-72
2021/12/08 02:57:12;;;;;;;4.10;2.10;;;;;;;0.32;79.52;97088.75;4205201;28;20472;-72
2021/12/08 02:59:13;;;;;;;7.60;2.80;;;;;;;0.28;80.50;97093.31;4205451;27;20048;-72
2021/12/08 03:01:14;;;;;;;4.10;2.40;;;;;;;0.21;80.21;97106.69;4210606;28;20522;-72
2021/12/08 03:03:14;;;;;;;4.93;2.30;;;;;;;0.15;82.82;97111.56;4205533;28;20039;-72
2021/12/08 03:05:15;;;;;;;5.63;2.63;;;;;;;0.13;84.06;97116.56;4203722;28;20387;-72
2021/12/08 03:07:16;;;;;;;6.55;2.30;;;;;;;0.09;83.18;97104.81;4206339;28;20480;-71
2021/12/08 03:09:16;;;;;;;3.50;2.40;;;;;;;0.12;82.78;97117.69;4205432;28;20472;-72
2021/12/08 03:11:17;;;;;;;6.28;2.47;;;;;;;0.06;82.61;97127.22;4207817;28;20035;-72
2021/12/08 03:13:39;;;;;;;3.63;2.50;;;;;;;0.05;82.12;97130.28;4205236;27;20443;-72
2021/12/08 03:15:41;;;;;;;4.50;2.53;;;;;;;-0.03;84.20;97127.34;4205569;28;20772;-72
2021/12/08 03:17:42;;;;;;;4.03;2.35;;;;;;;-0.02;85.62;97128.13;4205014;28;20476;-72
2021/12/08 03:19:42;;;;;;;6.47;2.67;;;;;;;-0.07;85.13;97121.03;4205928;28;20050;-72
2021/12/08 03:21:42;;;;;;;5.22;2.47;;;;;;;-0.10;85.07;97123.63;4205168;28;20060;-72
2021/12/08 03:25:55;;;;;;;4.78;2.58;;;;;;;0.04;82.22;97120.56;4205579;28;20451;-72
2021/12/08 03:28:07;;;;;;;4.55;2.53;;;;;;;0.07;80.14;97119.84;4208723;28;20401;-72
2021/12/08 03:30:15;;;;;;;2.90;2.40;;;;;;;0.10;81.00;97119.97;4209872;28;20040;-72
2021/12/08 03:32:25;;;;;;;3.65;2.45;;;;;;;0.07;81.85;97126.09;4206236;27;20035;-72
2021/12/08 03:34:26;;;;;;;5.07;2.75;;;;;;;0.10;79.58;97139.03;4205774;28;20028;-72
2021/12/08 03:36:26;;;;;;;5.88;2.70;;;;;;;0.14;82.08;97144.56;4205881;27;20470;-72
2021/12/08 03:38:27;;;;;;;3.25;2.35;;;;;;;0.18;82.83;97138.09;4208650;27;20064;-72
2021/12/08 03:40:28;;;;;;;4.30;2.75;;;;;;;0.23;82.77;97134.34;4207736;27;20032;-72
2021/12/08 03:42:30;;;;;;;3.35;2.30;;;;;;;0.31;78.65;97127.97;4206559;27;20032;-72
2021/12/08 03:44:31;;;;;;;3.90;2.22;;;;;;;0.29;80.62;97124.81;4215025;27;20119;-72
2021/12/08 03:46:38;;;;;;;4.18;2.40;;;;;;;0.35;82.60;97119.94;4208620;27;20408;-72
2021/12/08 03:48:50;;;;;;;3.25;2.25;;;;;;;0.35;79.11;97128.09;4209637;27;20036;-72
2021/12/08 03:50:51;;;;;;;3.45;2.05;;;;;;;0.36;81.50;97121.50;4216010;27;20043;-72
2021/12/08 03:52:52;;;;;;;4.43;2.70;;;;;;;0.37;81.65;97117.66;4208505;27;20039;-72
2021/12/08 03:54:52;;;;;;;3.72;2.42;;;;;;;0.40;79.70;97123.19;4208030;27;20048;-72
2021/12/08 03:56:53;;;;;;;4.63;2.22;;;;;;;0.39;81.15;97113.44;4211594;27;20292;-72
2021/12/08 03:58:54;;;;;;;3.85;2.30;;;;;;;0.45;77.70;97106.63;4206685;27;20048;-72
2021/12/08 04:00:56;;;;;;;3.75;2.45;;;;;;;0.55;78.05;97103.41;4210318;27;20916;-72
2021/12/08 04:02:59;;;;;;;6.25;3.25;;;;;;;0.57;79.06;97106.56;4212629;27;20068;-72
2021/12/08 04:05:02;;;;;;;4.10;2.60;;;;;;;0.58;78.69;97082.91;4208948;27;20130;-72
2021/12/08 04:07:03;;;;;;;4.35;2.60;;;;;;;0.64;77.83;97094.31;4211734;27;20090;-72
2021/12/08 04:09:12;;;;;;;6.05;2.72;;;;;;;0.64;78.27;97086.13;4206472;27;20057;-72
2021/12/08 04:11:13;;;;;;;3.67;2.58;;;;;;;0.61;77.64;97095.00;4208579;27;20051;-72
2021/12/08 04:13:16;;;;;;;4.57;2.65;;;;;;;0.59;77.06;97089.91;4213106;27;20454;-72
2021/12/08 04:15:18;;;;;;;4.15;2.60;;;;;;;0.57;79.22;97092.97;4209375;27;20347;-72
2021/12/08 04:17:38;;;;;;;4.20;2.53;;;;;;;0.66;76.69;97100.97;4207171;27;20392;-72
2021/12/08 04:19:41;;;;;;;4.25;2.80;;;;;;;0.73;77.90;97094.94;4208292;27;20044;-72
2021/12/08 04:21:42;;;;;;;3.92;2.60;;;;;;;0.66;77.74;97090.09;4209688;27;20380;-72
2021/12/08 04:23:44;;;;;;;4.35;2.50;;;;;;;0.70;75.78;97099.16;4210281;27;20497;-72
2021/12/08 04:25:48;;;;;;;5.93;2.42;;;;;;;0.63;76.66;97087.28;4209774;27;20048;-72
2021/12/08 04:27:52;;;;;;;6.65;3.35;;;;;;;0.63;76.52;97085.34;4209566;27;20031;-72
2021/12/08 04:29:53;;;;;;;4.75;2.67;;;;;;;0.69;76.20;97113.91;4208661;27;20412;-72
2021/12/08 04:31:54;;;;;;;4.20;2.75;;;;;;;0.67;76.54;97104.53;4211440;27;20079;-72
2021/12/08 04:34:00;;;;;;;3.90;2.42;;;;;;;0.65;76.41;97107.56;4208820;27;20032;-72
2021/12/08 04:36:02;;;;;;;4.22;3.00;;;;;;;0.63;77.49;97103.63;4213202;27;20051;-72
2021/12/08 04:38:14;;;;;;;4.57;3.05;;;;;;;0.67;79.24;97096.34;4209156;27;20032;-72
2021/12/08 04:41:11;;;;;;;4.60;3.00;;;;;;;0.70;77.73;97092.94;4207866;27;20260;-72
2021/12/08 04:43:06;;;;;;;4.97;3.17;;;;;;;0.70;78.88;97095.66;4206674;27;20036;-72
2021/12/08 04:45:14;;;;;;;4.70;2.70;;;;;;;0.66;78.20;97097.47;4211334;27;20615;-72
2021/12/08 04:47:26;;;;;;;4.13;2.95;;;;;;;0.62;79.61;97096.59;4209618;27;20087;-72
2021/12/08 04:52:04;;;;;;;4.80;2.88;;;;;;;0.67;77.02;97113.47;4209605;27;20636;-72
2021/12/08 05:02:03;;;;;;;6.35;3.10;;;;;;;0.63;79.82;97109.84;4208666;27;20093;-72
2021/12/08 05:06:38;;;;;;;5.13;3.10;;;;;;;0.53;79.44;97092.09;4209030;27;20063;-72
2021/12/08 05:08:42;;;;;;;3.88;2.80;;;;;;;0.54;80.44;97104.56;4210758;27;20063;-72
2021/12/08 05:10:43;;;;;;;3.40;2.50;;;;;;;0.59;80.54;97095.38;4209950;27;20028;-72
2021/12/08 05:12:47;;;;;;;5.55;3.13;;;;;;;0.62;79.84;97091.94;4209936;27;20426;-72
2021/12/08 05:14:52;;;;;;;4.53;2.80;;;;;;;0.56;80.25;97094.09;4210083;27;20036;-72
2021/12/08 05:16:58;;;;;;;5.50;3.15;;;;;;;0.55;81.13;97108.84;4210525;27;20062;-72
2021/12/08 05:19:03;;;;;;;5.43;3.33;;;;;;;0.53;81.02;97100.25;4210356;28;20583;-72
2021/12/08 05:21:10;;;;;;;4.80;3.15;;;;;;;0.60;80.62;97105.09;4213347;27;20044;-72
2021/12/08 05:23:33;;;;;;;3.78;3.00;;;;;;;0.61;80.76;97097.72;4212223;27;20210;-72
2021/12/08 05:25:37;;;;;;;4.35;2.78;;;;;;;0.54;80.53;97093.66;4211896;27;20230;-72
2021/12/08 05:27:44;;;;;;;5.65;2.97;;;;;;;0.62;81.55;97086.50;4215817;27;20039;-72
2021/12/08 05:29:51;;;;;;;5.40;3.47;;;;;;;0.64;80.42;97089.66;4209815;27;20036;-73
2021/12/08 05:31:53;;;;;;;14.95;6.68;;;;;;;0.61;81.21;97082.19;4208067;27;20522;-72
2021/12/08 05:33:54;;;;;;;4.80;3.33;;;;;;;0.60;80.69;97072.44;4211944;27;20040;-72
2021/12/08 05:35:55;;;;;;;6.97;4.32;;;;;;;0.60;80.82;97074.38;4210936;27;20130;-72
2021/12/08 05:37:56;;;;;;;4.72;2.97;;;;;;;0.63;80.47;97069.03;4208857;27;20044;-72
2021/12/08 05:39:56;;;;;;;6.00;4.10;;;;;;;0.67;80.65;97059.03;4210103;27;20040;-72
2021/12/08 05:42:09;;;;;;;6.97;5.10;;;;;;;0.59;81.39;97057.25;4208413;27;20042;-72
2021/12/08 05:44:11;;;;;;;10.90;6.68;;;;;;;0.63;80.89;97054.63;4205485;27;20055;-72
2021/12/08 05:46:13;;;;;;;10.30;5.60;;;;;;;0.55;82.32;97045.47;4213098;27;20039;-72
2021/12/08 05:48:14;;;;;;;9.73;5.05;;;;;;;0.60;82.43;97047.16;4209803;27;20031;-72
2021/12/08 05:50:20;;;;;;;8.63;4.22;;;;;;;0.60;81.90;97058.03;4205940;27;20360;-72
2021/12/08 05:52:22;;;;;;;8.73;4.78;;;;;;;0.63;81.87;97066.28;4206798;27;20079;-72
2021/12/08 05:54:31;;;;;;;5.65;3.67;;;;;;;0.62;82.36;97091.94;4208232;27;20123;-72
2021/12/08 05:56:31;;;;;;;5.07;3.67;;;;;;;0.59;82.12;97100.81;4208379;27;20081;-72
2021/12/08 05:58:34;;;;;;;5.38;3.72;;;;;;;0.54;82.19;97099.09;4204886;27;20407;-72
2021/12/08 06:00:48;;;;;;;5.82;3.70;;;;;;;0.50;82.92;97114.56;4206664;27;20322;-72
2021/12/08 06:02:49;;;;;;;7.93;4.05;;;;;;;0.50;82.87;97130.09;4207517;27;20046;-72
2021/12/08 06:04:49;;;;;;;6.53;3.92;;;;;;;0.50;83.58;97122.72;4208509;27;20040;-72
2021/12/08 06:06:50;;;;;;;3.72;3.15;;;;;;;0.49;83.19;97125.78;4204509;27;20032;-72
2021/12/08 06:08:52;;;;;;;5.80;3.33;;;;;;;0.52;83.76;97128.59;4204703;27;20506;-72
2021/12/08 06:10:54;;;;;;;6.40;4.13;;;;;;;0.49;83.27;97112.94;4207105;27;20470;-72
2021/12/08 06:12:54;;;;;;;7.97;4.00;;;;;;;0.60;83.60;97104.31;4206332;27;20450;-72
2021/12/08 06:14:56;;;;;;;6.57;3.35;;;;;;;0.61;83.10;97105.91;4207186;27;20039;-72
2021/12/08 06:16:56;;;;;;;6.68;3.75;;;;;;;0.59;82.75;97108.19;4205319;27;20036;-72
2021/12/08 06:18:57;;;;;;;6.55;4.32;;;;;;;0.55;82.68;97102.63;4206483;27;20340;-72
2021/12/08 06:20:59;;;;;;;10.23;4.72;;;;;;;0.51;83.39;97105.25;4204508;27;20036;-72
2021/12/08 06:23:00;;;;;;;9.65;4.50;;;;;;;0.52;84.25;97100.59;4209053;27;20032;-72
2021/12/08 06:25:00;;;;;;;8.23;3.90;;;;;;;0.48;84.07;97105.94;4206552;27;20052;-72
2021/12/08 06:27:01;;;;;;;6.53;3.70;;;;;;;0.51;84.25;97099.03;4204288;28;20560;-72
2021/12/08 06:29:04;;;;;;;4.88;3.10;;;;;;;0.46;84.44;97094.59;4206940;27;20039;-72
2021/12/08 06:31:06;;;;;;;5.68;3.05;;;;;;;0.44;84.52;97102.31;4206297;27;20059;-72
2021/12/08 06:33:07;;;;;;;5.80;3.15;;;;;;;0.41;84.53;97094.84;4206811;27;20201;-72
2021/12/08 06:35:13;;;;;;;4.65;3.05;;;;;;;0.42;85.15;97093.72;4206170;27;20067;-72
2021/12/08 06:37:19;;;;;;;5.25;2.70;;;;;;;0.47;85.40;97096.19;4206845;28;20047;-72
2021/12/08 06:39:27;;;;;;;3.25;2.38;;;;;;;0.45;84.88;97092.22;4205820;27;20036;-72
2021/12/08 06:41:34;;;;;;;4.55;2.45;;;;;;;0.44;84.74;97090.66;4205219;27;20361;-72
2021/12/08 06:43:39;;;;;;;3.72;2.60;;;;;;;0.44;85.18;97106.97;4208438;27;20048;-72
2021/12/08 06:45:44;;;;;;;5.35;2.97;;;;;;;0.46;85.84;97097.31;4211250;27;20080;-72
2021/12/08 06:47:47;;;;;;;7.47;3.65;;;;;;;0.43;85.50;97089.06;4206297;27;20040;-72
2021/12/08 06:49:50;;;;;;;7.25;4.30;;;;;;;0.36;85.82;97083.41;4203866;28;20338;-72
2021/12/08 06:51:55;;;;;;;5.95;3.97;;;;;;;0.36;86.36;97095.09;4205063;28;20070;-72
2021/12/08 06:54:01;;;;;;;8.77;5.03;;;;;;;0.41;86.36;97085.88;4207457;28;20504;-72
2021/12/08 06:56:35;;;;;;;13.43;6.60;;;;;;;0.51;85.71;97083.47;4204030;28;20434;-72
2021/12/08 06:58:38;;;;;;;11.05;5.60;;;;;;;0.52;85.69;97095.94;4193167;28;20082;-72
2021/12/08 07:01:40;;;;;;;10.48;5.50;;;;;;;0.60;85.42;97091.50;4206547;27;20051;-72
2021/12/08 07:07:02;;;;;;;6.88;3.97;;;;;;;0.60;85.47;97064.28;4207743;28;20093;-72
2021/12/08 07:08:46;;;;;;;7.85;3.47;;;;;;;0.64;85.24;97056.19;4199365;28;20036;-73
2021/12/08 07:10:50;;;;;;;5.80;3.05;;;;;;;0.59;85.55;97048.31;4205667;28;20052;-72
2021/12/08 07:13:05;;;;;;;4.10;2.13;;;;;;;0.63;86.40;97057.34;4217482;27;20066;-72
2021/12/08 07:15:11;;;;;;;4.28;2.50;;;;;;;0.70;86.28;97055.59;4214700;27;20027;-72
2021/12/08 07:17:18;;;;;;;6.15;3.50;;;;;;;0.70;86.55;97076.59;4210863;27;20047;-72
2021/12/08 07:19:28;;;;;;;5.28;2.45;;;;;;;0.69;85.87;97094.06;4207086;27;20042;-72
2021/12/08 07:21:34;;;;;;;4.68;2.70;;;;;;;0.68;85.86;97097.94;4207709;27;20040;-72
2021/12/08 07:23:43;;;;;;;6.10;3.58;;;;;;;0.65;86.29;97096.69;4208919;27;20585;-72
2021/12/08 07:25:46;;;;;;;4.97;3.00;;;;;;;0.78;85.42;97100.16;4210369;27;20375;-72
2021/12/08 07:27:47;;;;;;;6.00;3.33;;;;;;;0.75;84.92;97084.53;4209193;27;20044;-72
2021/12/08 07:29:49;;;;;;;6.68;3.88;;;;;;;0.86;85.51;97088.31;4205924;27;20032;-72
2021/12/08 07:31:56;;;;;;;5.18;3.05;;;;;;;0.88;84.72;97088.75;4210656;27;20040;-72
2021/12/08 07:34:04;;;;;;;5.13;4.25;;;;;;;0.86;85.46;97087.53;4208505;27;20032;-72
2021/12/08 07:36:10;;;;;;;4.53;3.10;;;;;;;0.84;85.36;97066.88;4209403;27;20048;-72
2021/12/08 07:38:16;;;;;;;3.75;2.78;;;;;;;0.88;85.25;97068.91;4212281;27;20028;-72
2021/12/08 07:40:28;;;;;;;3.05;2.50;;;;;;;0.89;84.94;97065.03;4209085;27;20275;-72
2021/12/08 07:42:38;;;;;;;2.75;2.38;;;;;;;0.86;85.00;97058.38;4208158;27;20578;-72
2021/12/08 07:44:39;;;;;;;4.57;2.60;;;;;;;0.80;85.67;97046.94;4206996;27;20055;-72
2021/12/08 07:46:49;;;;;;;4.78;3.20;;;;;;;0.80;85.98;97055.09;4208324;27;20325;-72
2021/12/08 07:48:58;;;;;;;3.53;2.88;;;;;;;0.76;86.09;97067.84;4208995;27;20039;-72
2021/12/08 07:51:11;;;;;;;5.57;3.05;;;;;;;0.72;86.70;97079.75;4209382;27;20048;-72
2021/12/08 07:53:14;;;;;;;5.63;3.33;;;;;;;0.73;86.87;97084.84;4207941;27;20399;-72
2021/12/08 07:55:20;;;;;;;;;;;;;;;0.77;86.18;97082.25;4210518;27;20534;-72
2021/12/08 07:57:27;;;;;;;15.93;3.78;;;;;;;0.81;86.78;97083.09;4209258;27;20340;-72
2021/12/08 07:59:29;;;;;;;7.03;2.92;;;;;;;0.88;86.12;97075.13;4210223;27;20503;-72
2021/12/08 08:01:33;;;;;;;16.05;3.53;;;;;;;0.90;86.13;97072.84;4210630;27;20404;-72
2021/12/08 08:03:34;;;;;;;5.43;2.92;;;;;;;0.86;86.90;97091.03;4213409;27;20051;-72
2021/12/08 08:05:36;;;;;;;4.30;2.35;;;;;;;0.84;86.69;97083.22;4208607;27;20976;-72
2021/12/08 08:07:37;;;;;;;5.73;2.70;;;;;;;0.83;85.92;97072.69;4210124;27;20036;-72
2021/12/08 08:09:43;;;;;;;4.07;2.00;;;;;;;0.81;87.59;97070.28;4207605;27;20369;-72
2021/12/08 08:11:54;;;;;;;2.45;2.10;;;;;;;0.83;85.90;97051.69;4208029;27;20464;-72
2021/12/08 08:13:55;;;;;;;3.38;1.92;;;;;;;0.81;86.62;97050.44;4212128;27;20138;-72
2021/12/08 08:16:05;;;;;;;2.85;2.08;;;;;;;0.80;86.54;97041.47;4211080;27;20079;-72
2021/12/08 08:18:08;;;;;;;2.95;1.90;;;;;;;0.86;86.96;97042.03;4211083;27;20044;-72
2021/12/08 08:20:13;;;;;;;2.92;1.73;;;;;;;0.91;87.44;97040.97;4214744;27;20028;-72
2021/12/08 08:22:22;;;;;;;4.57;2.33;;;;;;;0.90;87.02;97067.41;4213510;27;20094;-72
2021/12/08 08:24:22;;;;;;;3.72;2.22;;;;;;;0.92;86.59;97077.97;4207638;27;20040;-72
2021/12/08 08:26:23;;;;;;;3.85;2.10;;;;;;;0.92;87.26;97073.31;4209568;27;20618;-72
2021/12/08 08:28:24;;;;;;;4.85;2.83;;;;;;;0.92;86.84;97086.13;4212230;27;20126;-72
2021/12/08 08:30:31;;;;;;;3.10;2.55;;;;;;;0.95;86.39;97091.66;4205284;27;20056;-72
2021/12/08 08:32:35;;;;;;;3.58;2.60;;;;;;;0.97;86.87;97100.28;4209165;27;20090;-72
2021/12/08 08:34:39;;;;;;;4.72;2.50;;;;;;;0.96;86.26;97095.97;4212281;27;20036;-72
2021/12/08 08:36:44;;;;;;;3.10;2.33;;;;;;;0.94;86.92;97098.25;4213924;27;20044;-72
2021/12/08 08:38:50;;;;;;;3.38;2.33;;;;;;;0.92;87.67;97095.09;4207727;27;20116;-72
2021/12/08 08:41:02;;;;;;;4.07;2.97;;;;;;;0.90;88.05;97091.91;4209026;27;20059;-72
2021/12/08 08:43:04;;;;;;;4.35;3.10;;;;;;;0.89;88.76;97098.50;4210266;27;20048;-72
2021/12/08 08:45:18;;;;;;;3.78;2.55;;;;;;;0.92;88.43;97103.28;4209173;27;20303;-72
2021/12/08 08:47:27;;;;;;;4.40;2.30;;;;;;;0.95;87.21;97107.22;4211341;27;20488;-72
2021/12/08 08:49:31;;;;;;;6.28;4.20;;;;;;;0.94;87.13;97100.97;4206386;27;20059;-72
2021/12/08 08:51:39;;;;;;;7.40;4.18;;;;;;;0.90;87.46;97089.19;4207905;27;20044;-72
2021/12/08 08:53:45;;;;;;;9.18;6.00;;;;;;;0.90;87.99;97091.13;4210120;27;20036;-72
2021/12/08 08:55:53;;;;;;;6.15;4.30;;;;;;;0.90;89.48;97088.41;4207162;27;20032;-72
2021/12/08 08:57:54;;;;;;;5.88;3.72;;;;;;;0.89;89.82;97081.38;4207687;27;20085;-72
2021/12/08 08:59:59;;;;;;;5.13;3.20;;;;;;;0.87;89.43;97078.22;4207501;27;20434;-72
2021/12/08 09:02:07;;;;;;;3.97;3.30;;;;;;;0.87;89.19;97078.22;4205254;27;20047;-72
2021/12/08 09:04:15;;;;;;;7.28;4.40;;;;;;;0.83;89.64;97072.69;4208395;27;20044;-72
2021/12/08 09:06:24;;;;;;;4.95;3.63;;;;;;;0.86;88.85;97071.97;4207506;27;20035;-72
2021/12/08 09:08:27;;;;;;;7.15;4.25;;;;;;;0.87;88.04;97080.94;4209789;27;20567;-72
2021/12/08 09:10:40;;;;;;;14.25;7.75;;;;;;;0.87;88.32;97076.28;4206196;27;20271;-72
2021/12/08 09:12:45;;;;;;;34.30;16.77;;;;;;;0.91;88.68;97082.63;4206691;27;20036;-72
2021/12/08 09:15:04;;;;;;;22.98;12.52;;;;;;;0.92;87.75;97099.75;4207976;27;20028;-72
2021/12/08 09:17:21;;;;;;;21.40;13.02;;;;;;;0.93;88.52;97098.63;4206540;27;20494;-72
2021/12/08 09:19:29;;;;;;;20.40;12.05;;;;;;;0.95;88.10;97105.28;4205191;27;20489;-72
2021/12/08 09:21:29;;;;;;;26.17;14.27;;;;;;;0.96;88.59;97117.75;4209344;27;20070;-72
2021/12/08 09:23:36;;;;;;;20.60;12.02;;;;;;;1.00;88.77;97124.09;4207872;27;20139;-72
2021/12/08 09:26:07;;;;;;;30.83;15.60;;;;;;;1.01;88.66;97111.28;4205484;27;20527;-72
2021/12/08 09:28:15;;;;;;;24.27;14.35;;;;;;;1.01;87.23;97092.22;4208322;27;20302;-72
2021/12/08 09:30:34;;;;;;;24.85;14.80;;;;;;;1.00;86.82;97091.44;4205750;27;20035;-72
2021/12/08 09:32:43;;;;;;;19.90;12.40;;;;;;;1.00;87.32;97079.75;4209041;27;20047;-72
2021/12/08 09:35:20;;;;;;;16.13;9.85;;;;;;;1.00;88.21;97071.56;4207645;27;20515;-72
2021/12/08 09:37:24;;;;;;;11.30;7.28;;;;;;;0.98;89.59;97069.16;4206865;28;20032;-72
2021/12/08 09:39:28;;;;;;;13.18;8.63;;;;;;;1.01;88.53;97084.84;4209995;27;20581;-72
2021/12/08 09:41:38;;;;;;;12.57;8.70;;;;;;;1.04;89.04;97083.34;4214128;27;20230;-72
2021/12/08 09:43:52;;;;;;;15.00;9.73;;;;;;;1.06;88.79;97081.84;4206681;27;20800;-72
2021/12/08 09:46:06;;;;;;;18.23;10.40;;;;;;;1.09;88.38;97077.63;4205611;27;20051;-72
2021/12/08 09:48:08;;;;;;;14.05;9.30;;;;;;;1.09;89.09;97074.91;4212364;27;20054;-72
2021/12/08 09:50:11;;;;;;;12.23;8.05;;;;;;;1.13;89.49;97073.84;4205017;27;20020;-72
2021/12/08 09:52:14;;;;;;;11.95;7.85;;;;;;;1.21;88.62;97074.03;4207802;27;20032;-72
2021/12/08 09:54:14;;;;;;;;;;;;;;;1.31;89.24;97063.41;4205418;27;20028;-72
2021/12/08 09:56:16;;;;;;;8.55;4.90;;;;;;;1.42;89.42;97063.69;4206388;27;19927;-72
2021/12/08 09:58:17;;;;;;;6.00;4.32;;;;;;;1.44;87.27;97053.22;4208059;27;20030;-72
2021/12/08 10:00:29;;;;;;;5.38;4.05;;;;;;;1.45;87.11;97051.28;4205594;27;20138;-72
2021/12/08 10:02:33;;;;;;;6.50;5.18;;;;;;;1.44;86.66;97039.56;4205718;27;20040;-72
2021/12/08 10:04:33;;;;;;;5.50;3.80;;;;;;;1.48;87.49;97035.00;4209865;27;20036;-72
2021/12/08 10:06:37;;;;;;;6.43;3.78;;;;;;;1.49;87.38;97030.31;4206335;28;20057;-72
2021/12/08 10:08:41;;;;;;;5.32;3.80;;;;;;;1.54;88.31;97035.53;4203888;27;20549;-72
2021/12/08 10:10:43;;;;;;;6.22;4.22;;;;;;;1.55;89.48;97043.34;4206428;27;20731;-71
2021/12/08 10:12:44;;;;;;;7.88;4.53;;;;;;;1.59;89.17;97046.94;4207793;27;20657;-71
2021/12/08 10:14:46;;;;;;;6.65;4.05;;;;;;;1.60;89.27;97051.25;4206664;27;20404;-72
2021/12/08 10:16:51;;;;;;;8.30;4.57;;;;;;;1.59;88.14;97060.59;4206987;27;20048;-71
2021/12/08 10:18:53;;;;;;;16.23;10.07;;;;;;;1.61;88.67;97077.38;4206778;27;20036;-71
2021/12/08 10:20:55;;;;;;;21.92;11.18;;;;;;;1.63;89.54;97082.47;4205190;28;20043;-71
2021/12/08 10:23:17;;;;;;;25.37;12.93;;;;;;;1.64;89.69;97089.50;4207973;27;20123;-71
2021/12/08 10:25:23;;;;;;;31.15;15.88;;;;;;;1.61;89.66;97082.81;4206349;27;20075;-71
2021/12/08 10:27:23;;;;;;;26.00;13.55;;;;;;;1.63;90.17;97074.28;4207813;27;20428;-72